createdAt,value
2019-04-05T00:00:51.001Z,10.57
2019-04-05T00:03:25.839Z,10.73
2019-04-05T00:06:00.900Z,10.77
2019-04-05T00:08:34.692Z,10.60
2019-04-05T00:11:09.651Z,11.53
2019-04-05T00:13:43.400Z,10.13
2019-04-05T00:16:18.251Z,10.97
2019-04-05T00:18:51.911Z,10.73
2019-04-05T00:21:25.787Z,11.60
2019-04-05T00:23:59.598Z,11.03
2019-04-05T00:26:34.035Z,10.63
2019-04-05T00:29:08.843Z,9.97
2019-04-05T00:31:42.573Z,11.80
2019-04-05T00:34:16.239Z,11.07
2019-04-05T00:36:50.343Z,11.17
2019-04-05T00:39:23.999Z,11.27
2019-04-05T00:41:57.756Z,11.30
2019-04-05T00:44:31.661Z,11.53
2019-04-05T00:47:05.489Z,10.83
2019-04-05T00:49:39.433Z,10.03
2019-04-05T00:52:13.265Z,10.80
2019-04-05T00:54:46.883Z,11.03
2019-04-05T00:57:20.615Z,11.13
2019-04-05T00:59:54.203Z,11.20
2019-04-05T01:02:30.911Z,11.07
2019-04-05T01:05:06.370Z,11.13
2019-04-05T01:07:40.258Z,11.30
2019-04-05T01:10:15.161Z,11.10
2019-04-05T01:12:48.732Z,11.87
2019-04-05T01:19:03.936Z,11.13
2019-04-05T01:21:39.974Z,10.87
2019-04-05T01:24:14.414Z,11.60
2019-04-05T01:26:49.542Z,11.30
2019-04-05T01:29:24.539Z,10.40
2019-04-05T01:35:35.541Z,10.97
2019-04-05T01:38:09.737Z,11.57
2019-04-05T01:40:46.121Z,12.17
2019-04-05T01:43:20.069Z,11.47
2019-04-05T01:45:54.680Z,11.63
2019-04-05T01:48:28.569Z,11.90
2019-04-05T01:51:02.275Z,11.87
2019-04-05T01:53:37.483Z,11.67
2019-04-05T01:56:11.799Z,11.73
2019-04-05T01:58:45.531Z,12.27
2019-04-05T02:01:19.263Z,12.37
2019-04-05T02:03:52.907Z,12.43
2019-04-05T02:06:26.925Z,11.30
2019-04-05T02:09:00.663Z,12.17
2019-04-05T02:11:34.403Z,11.57
2019-04-05T02:14:08.310Z,11.47
2019-04-05T02:16:42.050Z,12.03
2019-04-05T02:19:18.517Z,12.30
2019-04-05T02:21:52.194Z,12.20
2019-04-05T02:24:26.091Z,11.73
2019-04-05T02:26:59.816Z,11.10
2019-04-05T02:29:33.565Z,11.00
2019-04-05T02:32:07.404Z,11.33
2019-04-05T02:34:41.251Z,10.90
2019-04-05T02:37:14.958Z,11.40
2019-04-05T02:39:49.382Z,11.67
2019-04-05T02:42:23.554Z,11.03
2019-04-05T02:44:57.714Z,12.53
2019-04-05T02:47:32.969Z,12.30
2019-04-05T02:50:09.122Z,11.60
2019-04-05T02:52:44.701Z,11.03
2019-04-05T02:55:21.113Z,12.40
2019-04-05T02:57:56.890Z,11.07
2019-04-05T03:04:16.962Z,12.17
2019-04-05T03:06:52.650Z,12.10
2019-04-05T03:09:26.883Z,12.07
2019-04-05T03:12:01.171Z,11.97
2019-04-05T03:14:36.219Z,11.87
2019-04-05T03:20:48.957Z,11.73
2019-04-05T03:23:22.720Z,12.20
2019-04-05T03:25:59.500Z,12.77
2019-04-05T03:28:36.185Z,13.00
2019-04-05T03:31:10.573Z,12.10
2019-04-05T03:33:45.057Z,12.83
2019-04-05T03:36:19.303Z,12.73
2019-04-05T03:38:53.356Z,12.40
2019-04-05T03:41:27.500Z,11.50
2019-04-05T03:44:01.896Z,12.43
2019-04-05T03:46:36.601Z,12.57
2019-04-05T03:49:10.556Z,12.93
2019-04-05T03:51:45.602Z,12.50
2019-04-05T03:54:19.634Z,13.07
2019-04-05T03:56:53.519Z,13.03
2019-04-05T03:59:27.279Z,13.50
2019-04-05T04:02:04.537Z,12.90
2019-04-05T04:04:37.467Z,13.03
2019-04-05T04:07:13.071Z,13.17
2019-04-05T04:09:46.815Z,13.13
2019-04-05T04:12:20.626Z,13.13
2019-04-05T04:14:55.308Z,13.37
2019-04-05T04:17:31.156Z,12.93
2019-04-05T04:20:08.962Z,13.67
2019-04-05T04:22:43.718Z,13.23
2019-04-05T04:25:17.586Z,13.40
2019-04-05T04:27:51.522Z,13.23
2019-04-05T04:30:25.815Z,13.30
2019-04-05T04:33:00.840Z,12.60
2019-04-05T04:35:34.892Z,13.80
2019-04-05T04:38:09.151Z,13.80
2019-04-05T04:40:43.302Z,13.50
2019-04-05T04:43:17.027Z,13.93
2019-04-05T04:49:28.313Z,14.10
2019-04-05T04:52:03.253Z,13.63
2019-04-05T04:54:37.625Z,13.93
2019-04-05T04:57:11.784Z,14.63
2019-04-05T04:59:45.526Z,14.53
2019-04-05T05:06:08.849Z,14.33
2019-04-05T05:08:42.885Z,16.50
2019-04-05T05:11:17.253Z,14.23
2019-04-05T05:13:51.056Z,13.93
2019-04-05T05:16:25.052Z,15.30
2019-04-05T05:18:59.000Z,14.23
2019-04-05T05:21:33.170Z,14.37
2019-04-05T05:24:06.946Z,15.17
2019-04-05T05:26:41.307Z,15.33
2019-04-05T05:29:15.512Z,14.77
2019-04-05T05:31:49.458Z,14.50
2019-04-05T05:34:23.600Z,15.30
2019-04-05T05:36:58.525Z,14.10
2019-04-05T05:39:32.456Z,14.00
2019-04-05T05:42:06.146Z,14.73
2019-04-05T05:44:40.664Z,14.27
2019-04-05T05:47:14.401Z,13.83
2019-04-05T05:49:48.170Z,14.43
2019-04-05T05:52:21.915Z,12.87
2019-04-05T05:54:55.689Z,14.40
2019-04-05T05:57:29.500Z,13.83
2019-04-05T06:00:05.368Z,15.28
2019-04-05T06:02:39.512Z,13.50
2019-04-05T06:05:13.773Z,12.73
2019-04-05T06:07:47.558Z,13.27
2019-04-05T06:10:21.248Z,12.77
2019-04-05T06:12:55.084Z,12.73
2019-04-05T06:15:28.736Z,13.37
2019-04-05T06:18:04.834Z,12.37
2019-04-05T06:20:37.701Z,12.00
2019-04-05T06:23:11.560Z,12.70
2019-04-05T06:25:45.245Z,11.90
2019-04-05T06:28:18.874Z,13.20
2019-04-05T06:30:52.618Z,12.87
2019-04-05T06:35:39.699Z,13.70
2019-04-05T06:36:01.522Z,13.23
2019-04-05T06:38:35.299Z,13.20
2019-04-05T06:41:10.058Z,14.57
2019-04-05T06:43:43.834Z,13.43
2019-04-05T06:49:55.504Z,12.53
2019-04-05T06:52:29.090Z,14.43
2019-04-05T06:55:02.740Z,13.20
2019-04-05T06:57:36.460Z,14.47
2019-04-05T07:00:10.765Z,14.40
2019-04-05T07:06:11.766Z,13.90
2019-04-05T07:08:53.598Z,13.33
2019-04-05T07:11:21.030Z,14.47
2019-04-05T07:13:54.674Z,15.90
2019-04-05T07:16:29.296Z,14.57
2019-04-05T07:19:02.958Z,14.00
2019-04-05T07:21:37.097Z,13.97
2019-04-05T07:24:10.794Z,13.17
2019-04-05T07:26:44.425Z,13.03
2019-04-05T07:29:18.021Z,12.60
2019-04-05T07:31:51.904Z,12.68
2019-04-05T07:34:26.465Z,13.90
2019-04-05T07:37:00.155Z,14.00
2019-04-05T07:39:33.842Z,13.80
2019-04-05T07:42:07.610Z,14.33
2019-04-05T07:44:41.456Z,13.77
2019-04-05T07:47:15.279Z,13.57
2019-04-05T07:49:49.004Z,14.03
2019-04-05T07:52:22.952Z,14.43
2019-04-05T07:54:56.796Z,14.80
2019-04-05T07:57:31.288Z,14.50
2019-04-05T08:00:07.699Z,14.60
2019-04-05T08:02:41.453Z,14.77
2019-04-05T08:05:15.287Z,17.90
2019-04-05T08:07:51.107Z,14.80
2019-04-05T08:10:25.481Z,14.53
2019-04-05T08:13:00.820Z,14.57
2019-04-05T08:15:34.884Z,14.40
2019-04-05T08:18:08.740Z,14.80
2019-04-05T08:20:42.487Z,15.90
2019-04-05T08:23:16.201Z,15.00
2019-04-05T08:25:49.851Z,14.33
2019-04-05T08:28:23.472Z,15.30
2019-04-05T08:30:57.133Z,15.40
2019-04-05T08:33:30.855Z,16.23
2019-04-05T08:36:04.668Z,15.20
2019-04-05T08:38:39.870Z,15.40
2019-04-05T08:41:13.835Z,14.50
2019-04-05T08:43:47.715Z,15.87
2019-04-05T08:46:21.551Z,15.50
2019-04-05T08:48:55.282Z,15.27
2019-04-05T08:51:29.030Z,15.13
2019-04-05T08:54:02.846Z,15.93
2019-04-05T08:56:37.445Z,16.17
2019-04-05T08:59:11.185Z,15.60
2019-04-05T09:01:44.870Z,16.00
2019-04-05T09:04:18.965Z,15.80
2019-04-05T09:06:52.685Z,16.03
2019-04-05T09:09:26.360Z,15.30
2019-04-05T09:12:00.207Z,16.23
2019-04-05T09:14:34.020Z,16.37
2019-04-05T09:20:45.210Z,16.17
2019-04-05T09:23:19.003Z,17.23
2019-04-05T09:25:53.327Z,16.43
2019-04-05T09:28:30.145Z,15.67
2019-04-05T09:31:03.952Z,16.17
2019-04-05T09:37:15.229Z,16.97
2019-04-05T09:39:49.553Z,19.25
2019-04-05T09:42:23.447Z,17.03
2019-04-05T09:44:57.227Z,17.27
2019-04-05T09:47:32.289Z,17.63
2019-04-05T09:50:07.540Z,16.87
2019-04-05T09:52:41.437Z,16.57
2019-04-05T09:55:15.993Z,17.00
2019-04-05T09:57:50.075Z,16.30
2019-04-05T10:00:25.322Z,18.77
2019-04-05T10:02:59.333Z,17.50
2019-04-05T10:05:33.656Z,17.30
2019-04-05T10:08:07.355Z,17.30
2019-04-05T10:10:41.136Z,16.30
2019-04-05T10:13:14.759Z,16.17
2019-04-05T10:15:48.463Z,17.03
2019-04-05T10:18:23.755Z,16.00
2019-04-05T10:20:58.159Z,16.87
2019-04-05T10:23:31.919Z,16.83
2019-04-05T10:26:06.606Z,16.00
2019-04-05T10:28:40.305Z,15.20
2019-04-05T10:31:13.945Z,15.33
2019-04-05T10:33:47.557Z,17.47
2019-04-05T10:36:21.316Z,16.73
2019-04-05T10:38:54.983Z,15.93
2019-04-05T10:41:28.635Z,17.40
2019-04-05T10:44:02.683Z,16.47
2019-04-05T10:46:36.718Z,16.73
2019-04-05T10:49:10.363Z,16.50
2019-04-05T10:51:44.097Z,16.67
2019-04-05T10:54:17.919Z,16.57
2019-04-05T10:56:51.716Z,16.37
2019-04-05T10:59:25.346Z,17.50
2019-04-05T11:01:58.949Z,17.57
2019-04-05T11:04:32.574Z,15.97
2019-04-05T11:07:06.383Z,15.83
2019-04-05T11:09:40.423Z,16.07
2019-04-05T11:12:14.113Z,16.33
2019-04-05T11:14:47.797Z,16.97
2019-04-05T11:17:21.475Z,16.77
2019-04-05T11:19:55.134Z,15.13
2019-04-05T11:22:28.887Z,17.30
2019-04-05T11:25:02.568Z,17.00
2019-04-05T11:27:36.353Z,16.83
2019-04-05T11:30:11.024Z,17.10
2019-04-05T11:35:56.451Z,16.63
2019-04-05T11:38:30.449Z,16.63
2019-04-05T11:41:04.342Z,16.73
2019-04-05T11:43:39.009Z,18.13
2019-04-05T11:46:14.335Z,17.57
2019-04-05T11:52:34.214Z,16.87
2019-04-05T11:55:08.976Z,19.48
2019-04-05T11:57:44.188Z,17.30
2019-04-05T12:00:39.906Z,17.10
2019-04-05T12:03:17.979Z,17.20
2019-04-05T12:05:51.818Z,17.67
2019-04-05T12:08:25.424Z,16.73
2019-04-05T12:10:59.257Z,16.53
2019-04-05T12:13:32.862Z,16.93
2019-04-05T12:16:07.287Z,16.97
2019-04-05T12:18:42.266Z,16.47
2019-04-05T12:21:16.165Z,16.70
2019-04-05T12:23:50.074Z,15.73
2019-04-05T12:26:23.843Z,17.00
2019-04-05T12:28:57.625Z,16.23
2019-04-05T12:31:31.335Z,16.10
2019-04-05T12:34:05.089Z,17.07
2019-04-05T12:36:39.023Z,15.60
2019-04-05T12:39:12.888Z,16.53
2019-04-05T12:41:46.518Z,16.50
2019-04-05T12:44:20.240Z,15.13
2019-04-05T12:46:54.063Z,16.73
2019-04-05T12:49:27.648Z,15.50
2019-04-05T12:52:01.474Z,16.60
2019-04-05T12:54:35.231Z,16.00
2019-04-05T12:57:09.012Z,15.33
2019-04-05T12:59:42.844Z,15.30
2019-04-05T13:02:20.584Z,15.70
2019-04-05T13:04:52.080Z,15.13
2019-04-05T13:07:25.847Z,15.97
2019-04-05T13:09:59.474Z,16.30
2019-04-05T13:12:33.156Z,15.47
2019-04-05T13:15:13.789Z,15.80
2019-04-05T13:17:43.012Z,15.33
2019-04-05T13:20:16.988Z,15.43
2019-04-05T13:22:50.618Z,15.83
2019-04-05T13:25:24.320Z,15.60
2019-04-05T13:27:58.272Z,16.00
2019-04-05T13:30:32.114Z,15.60
2019-04-05T13:33:06.408Z,14.93
2019-04-05T13:35:40.345Z,15.40
2019-04-05T13:38:13.919Z,15.17
2019-04-05T13:40:47.715Z,15.17
2019-04-05T13:43:21.353Z,14.90
2019-04-05T13:45:55.613Z,14.90
2019-04-05T13:51:27.735Z,15.60
2019-04-05T13:53:56.004Z,14.57
2019-04-05T13:56:29.791Z,15.73
2019-04-05T13:59:03.687Z,17.00
2019-04-05T14:01:37.426Z,15.70
2019-04-05T14:07:48.184Z,16.67
2019-04-05T14:10:21.890Z,17.00
2019-04-05T14:12:56.464Z,16.17
2019-04-05T14:15:31.547Z,16.70
2019-04-05T14:18:05.231Z,16.37
2019-04-05T14:24:16.090Z,16.17
2019-04-05T14:26:49.947Z,18.07
2019-04-05T14:29:23.760Z,18.70
2019-04-05T14:32:02.532Z,17.73
2019-04-05T14:34:33.152Z,17.67
2019-04-05T14:37:06.794Z,17.50
2019-04-05T14:39:42.295Z,18.20
2019-04-05T14:42:16.022Z,18.87
2019-04-05T14:44:50.176Z,18.40
2019-04-05T14:47:27.799Z,17.67
2019-04-05T14:50:00.981Z,17.50
2019-04-05T14:52:34.735Z,19.20
2019-04-05T14:55:08.560Z,18.90
2019-04-05T14:57:43.572Z,18.90
2019-04-05T15:00:17.908Z,19.63
2019-04-05T15:02:51.764Z,18.83
2019-04-05T15:05:25.590Z,17.27
2019-04-05T15:07:59.645Z,18.17
2019-04-05T15:10:33.242Z,18.77
2019-04-05T15:13:07.010Z,17.27
2019-04-05T15:15:40.892Z,17.17
2019-04-05T15:18:14.519Z,18.37
2019-04-05T15:20:48.213Z,17.33
2019-04-05T15:23:22.732Z,19.42
2019-04-05T15:25:56.596Z,19.10
2019-04-05T15:28:30.199Z,18.13
2019-04-05T15:31:05.355Z,18.07
2019-04-05T15:33:39.537Z,16.67
2019-04-05T15:36:14.754Z,17.87
2019-04-05T15:38:48.663Z,17.20
2019-04-05T15:41:24.390Z,17.80
2019-04-05T15:43:58.202Z,18.17
2019-04-05T15:46:32.036Z,16.87
2019-04-05T15:49:05.764Z,16.87
2019-04-05T15:51:41.126Z,17.17
2019-04-05T15:54:14.728Z,16.47
2019-04-05T15:56:51.602Z,16.97
2019-04-05T15:59:25.964Z,16.70
2019-04-05T16:02:01.446Z,16.53
2019-04-05T16:08:21.373Z,16.20
2019-04-05T16:10:55.042Z,16.80
2019-04-05T16:13:29.066Z,16.30
2019-04-05T16:16:02.933Z,16.53
2019-04-05T16:18:36.702Z,17.57
2019-04-05T16:24:56.624Z,15.60
2019-04-05T16:27:32.189Z,16.33
2019-04-05T16:30:07.345Z,15.77
2019-04-05T16:32:41.264Z,16.27
2019-04-05T16:35:14.963Z,15.80
2019-04-05T16:37:48.609Z,16.83
2019-04-05T16:40:22.613Z,17.43
2019-04-05T16:43:02.785Z,17.60
2019-04-05T16:45:32.071Z,17.20
2019-04-05T16:48:07.723Z,18.40
2019-04-05T16:50:42.365Z,17.43
2019-04-05T16:53:16.436Z,16.80
2019-04-05T16:55:50.060Z,16.73
2019-04-05T16:58:23.864Z,19.17
2019-04-05T17:00:57.486Z,18.07
2019-04-05T17:03:31.248Z,17.57
2019-04-05T17:06:04.973Z,18.20
2019-04-05T17:08:38.681Z,18.40
2019-04-05T17:11:12.325Z,17.73
2019-04-05T17:13:46.409Z,19.10
2019-04-05T17:16:20.093Z,20.03
2019-04-05T17:18:53.765Z,18.00
2019-04-05T17:21:27.610Z,19.70
2019-04-05T17:24:01.412Z,19.10
2019-04-05T17:26:35.083Z,18.60
2019-04-05T17:29:09.082Z,18.43
2019-04-05T17:31:47.981Z,18.87
2019-04-05T17:34:21.774Z,20.27
2019-04-05T17:36:55.481Z,21.13
2019-04-05T17:39:29.285Z,19.47
2019-04-05T17:42:03.212Z,22.07
2019-04-05T17:44:37.437Z,19.10
2019-04-05T17:47:11.118Z,20.63
2019-04-05T17:49:44.903Z,19.23
2019-04-05T17:52:18.641Z,20.73
2019-04-05T17:54:52.434Z,19.37
2019-04-05T17:57:26.239Z,19.73
2019-04-05T18:00:00.455Z,20.77
2019-04-05T18:02:34.143Z,19.83
2019-04-05T18:05:07.941Z,20.57
2019-04-05T18:07:41.703Z,20.13
2019-04-05T18:10:15.884Z,19.30
2019-04-05T18:12:49.556Z,20.37
2019-04-05T18:15:23.462Z,21.53
2019-04-05T18:17:57.118Z,20.77
2019-04-05T18:24:07.991Z,20.57
2019-04-05T18:26:41.920Z,20.53
2019-04-05T18:29:15.767Z,21.23
2019-04-05T18:31:49.408Z,21.40
2019-04-05T18:34:23.127Z,21.83
2019-04-05T18:40:39.833Z,20.00
2019-04-05T18:43:09.939Z,20.40
2019-04-05T18:45:43.604Z,20.47
2019-04-05T18:48:17.245Z,19.93
2019-04-05T18:50:50.919Z,20.27
2019-04-05T18:53:36.992Z,19.53
2019-04-05T18:56:01.714Z,19.27
2019-04-05T18:58:35.444Z,19.17
2019-04-05T19:01:09.968Z,19.43
2019-04-05T19:03:43.707Z,19.50
2019-04-05T19:06:17.309Z,20.30
2019-04-05T19:08:51.096Z,19.50
2019-04-05T19:11:24.843Z,20.73
2019-04-05T19:14:01.305Z,20.07
2019-04-05T19:16:33.966Z,18.83
2019-04-05T19:19:07.773Z,19.43
2019-04-05T19:21:41.536Z,19.87
2019-04-05T19:24:15.365Z,19.63
2019-04-05T19:26:49.008Z,20.50
2019-04-05T19:29:23.079Z,20.23
2019-04-05T19:50:06.773Z,20.70
2019-04-05T19:52:40.482Z,21.63
2019-04-05T19:55:14.815Z,20.93
2019-04-05T19:57:48.432Z,21.13
2019-04-05T20:00:22.215Z,21.90
2019-04-05T20:02:55.823Z,21.13
2019-04-05T20:05:29.954Z,21.03
2019-04-05T20:08:03.694Z,22.10
2019-04-05T20:10:38.728Z,21.40
2019-04-05T20:13:12.646Z,20.80
2019-04-05T20:15:46.466Z,20.37
2019-04-05T20:18:20.113Z,21.60
2019-04-05T20:20:54.815Z,20.97
2019-04-05T20:23:28.511Z,20.20
2019-04-05T20:26:02.752Z,20.67
2019-04-05T20:28:36.552Z,21.43
2019-04-05T20:31:10.280Z,19.37
2019-04-05T20:33:44.111Z,19.13
2019-04-05T20:40:11.110Z,19.57
2019-04-05T20:42:44.903Z,18.63
2019-04-05T20:45:18.615Z,18.50
2019-04-05T20:47:52.502Z,19.50
2019-04-05T20:50:26.249Z,20.13
2019-04-05T20:56:46.129Z,24.03
2019-04-05T20:59:20.018Z,21.63
2019-04-05T21:01:53.761Z,20.77
2019-04-05T21:04:27.430Z,19.67
2019-04-05T21:07:01.592Z,20.10
2019-04-05T21:09:35.242Z,19.80
2019-04-05T21:12:08.857Z,20.23
2019-04-05T21:14:42.750Z,20.90
2019-04-05T21:17:17.272Z,19.20
2019-04-05T21:19:50.946Z,20.03
2019-04-05T21:22:24.593Z,20.23
2019-04-05T21:24:58.292Z,20.57
2019-04-05T21:27:32.516Z,20.23
2019-04-05T21:30:08.020Z,20.53
2019-04-05T21:32:41.955Z,19.47
2019-04-05T21:35:15.637Z,19.33
2019-04-05T21:37:49.283Z,19.67
2019-04-05T21:40:23.062Z,19.50
2019-04-05T21:42:56.940Z,19.93
2019-04-05T21:45:30.600Z,19.23
2019-04-05T21:48:04.400Z,20.17
2019-04-05T21:50:38.205Z,18.97
2019-04-05T21:53:11.874Z,18.43
2019-04-05T21:55:45.798Z,17.97
2019-04-05T21:58:19.624Z,18.13
2019-04-05T22:00:54.916Z,17.33
2019-04-05T22:03:28.754Z,17.70
2019-04-05T22:06:02.307Z,17.90
2019-04-05T22:08:36.033Z,17.57
2019-04-05T22:11:09.851Z,16.80
2019-04-05T22:13:43.564Z,15.63
2019-04-05T22:16:19.588Z,15.97
2019-04-05T22:18:53.307Z,15.93
2019-04-05T22:21:27.008Z,15.77
2019-04-05T22:24:00.712Z,15.30
2019-04-05T22:26:34.364Z,15.53
2019-04-05T22:29:07.982Z,15.07
2019-04-05T22:31:41.694Z,15.20
2019-04-05T22:34:15.443Z,14.90
2019-04-05T22:36:49.114Z,15.83
2019-04-05T22:39:22.821Z,15.80
2019-04-05T22:41:56.458Z,15.27
2019-04-05T22:44:38.086Z,15.23
2019-04-05T22:47:07.066Z,15.00
2019-04-05T22:49:40.776Z,15.07
2019-04-05T22:56:00.582Z,14.33
2019-04-05T22:58:35.687Z,13.57
2019-04-05T23:01:09.592Z,13.53
2019-04-05T23:03:43.297Z,13.13
2019-04-05T23:06:16.973Z,12.47
2019-04-05T23:12:27.814Z,13.10
2019-04-05T23:15:01.435Z,12.57
2019-04-05T23:17:35.249Z,11.90
2019-04-05T23:20:09.811Z,12.43
2019-04-05T23:22:43.410Z,13.03
2019-04-05T23:25:22.124Z,13.43
2019-04-05T23:27:54.186Z,13.27
2019-04-05T23:30:29.560Z,12.33
2019-04-05T23:33:03.493Z,12.80
2019-04-05T23:35:37.152Z,13.17
2019-04-05T23:38:10.816Z,11.60
2019-04-05T23:40:44.480Z,12.50
2019-04-05T23:43:18.188Z,12.37
2019-04-05T23:45:51.867Z,11.37
2019-04-05T23:48:25.867Z,12.10
2019-04-05T23:50:59.615Z,12.40
2019-04-05T23:53:33.306Z,11.60
2019-04-05T23:56:07.050Z,11.63
2019-04-05T23:58:40.782Z,11.40
